Didier Marty

Recruteur - Stade Rennais
3 Avr 2027
Samedi
Processus

Personnalité

Adaptabilité (4) Ambition (12) Controverse (3) Loyauté (5) Pression (6) Professionnalisme (10) Sportivité (19) Tempérament (12)

Profil

Style d'entraînement Démocratique
Diplôme National A
Détermination 13
Gestion des joueurs 8
Motivation 10
Discipline 8
Satisfaction professionnelle
100%
Fatigue
0%
Rôle Recruteur
Salaire 91.3K p/s
Contrat 14.03.2030

Performance

Comportement Bon
Efficacité de l'entraînement
59%
Développement des joueurs
65%
Prévention des blessures
45%
Mise en place tactique
75%

Événements récents

A participé à une réunion de recrutement maintenant
A participé à une réunion de recrutement maintenant
A évalué un joueur maintenant
A évalué un joueur maintenant
A évalué un joueur 7j
A évalué un joueur 7j
A évalué un joueur 7j
A évalué un joueur 7j

Suivi en cours

46
Joueur Club Statut Capacité Confiance Observé Dernière observation Dernier vote
Gonzalo Plata Dinamo Moscow Actif 131 / 131 40% 5 01.04.2027 -
Jason Januzaj Mouscron Actif 147 / 140 40% 6 01.04.2027 -
Marco Brescianini Fiorentina Actif 140 / 140 40% 2 01.04.2027 -
Arnaud Noël Chamois Niortais Actif 139 / 133 40% 1 01.04.2027 -
Ivan Toney Al-Ahli Actif 151 / 141 40% 5 28.03.2027 -
Jean-Luc Morin Tours Refusé 152 / 136 40% 1 26.03.2027 Plus d'infos
Sergi Altimira Sporting CP Actif 135 / 137 40% 1 26.03.2027 -
Gabriel Sara Galatasaray Actif 128 / 138 40% 1 25.03.2027 -
Bart van Rooij Twente Actif 138 / 133 40% 1 25.03.2027 -
Veljko Birmančević Ferencvaros Actif 125 / 132 40% 2 22.03.2027 -
Aral Şimşir Trabzonspor Actif 130 / 126 40% 1 20.03.2027 -
Felipe Augusto Zenit Actif 119 / 138 40% 1 20.03.2027 -
Boulaye Dia Lazio Actif 128 / 137 40% 1 18.03.2027 -
Nikola Krstović Atalanta Actif 129 / 143 40% 1 16.03.2027 -
Will Lankshear Middlesbrough Actif 117 / 126 40% 1 13.03.2027 -
Mohamed Bamba FC Lorient Actif 123 / 125 40% 1 13.03.2027 -
Jalen Blesa Rio Ave Actif 113 / 115 40% 1 12.03.2027 -
Matheus Nascimento Le Havre AC Actif 121 / 127 40% 1 02.03.2027 -
Lewis McCann Fleetwood Town Actif 93 / 100 40% 1 02.03.2027 -
Kévin Cabral Red Star Actif 111 / 121 40% 1 27.02.2027 -
Nicolò Tresoldi Club Brugge Actif 140 / 139 40% 1 27.02.2027 -
Tamerlan Musaev CSKA Moscow Actif 118 / 114 40% 1 26.02.2027 -
Peter Itodo Metalist Actif 112 / 116 40% 1 26.02.2027 -
Myron van Brederode KV Mechelen Actif 109 / 126 40% 1 21.02.2027 -
Luis Vázquez Birmingham Actif 141 / 128 40% 1 21.02.2027 -
Lassina Traoré Shakhtar Actif 120 / 119 40% 1 20.02.2027 -
Brayan Gil Baltika Actif 103 / 120 40% 1 20.02.2027 -
Rafiu Durosinmi Racing Genk Actif 144 / 126 40% 2 19.02.2027 -
Yegor Golenkov Rostov Actif 117 / 118 40% 1 19.02.2027 -
Jonathan Afolabi KV Kortrijk Actif 110 / 100 40% 1 14.02.2027 -
Duk Atlas Actif 99 / 118 40% 1 14.02.2027 -
Luciano Gondou CSKA Moscow Actif 137 / 130 40% 1 04.02.2027 -
Allahyar Sayyadmanesh Lech Actif 117 / 123 40% 1 04.02.2027 -
Jackson Muleka Konyaspor Actif 142 / 118 40% 1 03.02.2027 -
Marezi Portsmouth Actif 131 / 120 40% 1 02.02.2027 -
Enis Destan Konyaspor Actif 136 / 127 40% 1 02.02.2027 -
Danylo Sikan Anderlecht Actif 137 / 130 40% 2 01.02.2027 -
Aune Heggebø West Bromwich Albion Actif 136 / 128 40% 1 01.02.2027 -
Vinícius Lopes Santa Clara Actif 121 / 116 40% 1 30.01.2027 -
Gaël Nsombi US Creteil Actif 92 / 102 40% 1 23.01.2027 -
Sébastien Durand Tours Refusé 124 / 137 40% 2 17.01.2027 Plus d'infos
Sergio Quintero La Equidad Actif 120 / 140 40% 1 17.01.2027 -
Marco Bizot Aston Villa Actif 145 / 144 40% 1 02.08.2026 -
Luis Malagón Club America Actif 152 / 131 40% 1 02.08.2026 -
Alex Tóth Bournemouth Actif 126 / 130 40% 1 01.08.2026 -
Jan Virgili Club Brugge Actif 131 / 128 40% 1 01.08.2026 -